VA7VRN-8 Weather Reports


Display with metric or nautical units.
time (UTC)temp
F
wind
direction
speed
MPH
gust
MPH
rain 1hr
in
rain 24hr
in
rain mn
in
humidity
%
barometer
mb
20211208031657 25 180 3.0 4.0 0.00 0.00 0.00 65 1006.3
20211208031150 25 135 3.0 4.0 0.00 0.00 0.00 65 1006.5
20211208030644 25 103 4.0 5.0 0.00 0.00 0.00 65 1006.7
20211208030138 25 103 7.0 7.0 0.00 0.00 0.00 65 1006.5
20211208025632 25 90 2.0 5.0 0.00 0.00 0.00 65 1006.9
20211208025126 25 180 1.0 2.0 0.00 0.00 0.00 65 1007.1
20211208024620 25 180 3.0 5.0 0.00 0.00 0.00 64 1006.7
20211208024113 25 180 5.0 6.0 0.00 0.00 0.00 64 1006.8
20211208023607 25 180 4.0 5.0 0.00 0.00 0.00 64 1007.1
20211208023101 25 180 5.0 5.0 0.00 0.00 0.00 64 1007.2
20211208022049 25 270 6.0 6.0 0.00 0.00 0.00 64 1007.6
20211208021542 25 225 4.0 4.0 0.00 0.00 0.00 64 1007.6
20211208021036 25 270 3.0 4.0 0.00 0.00 0.00 64 1008.0
20211208020530 25 270 4.0 6.0 0.00 0.00 0.00 64 1008.3
20211208020024 25 270 2.0 2.0 0.00 0.00 0.00 64 1008.4
20211208015518 25 0 0.0 3.0 0.00 0.00 0.00 64 1008.5
20211208014505 25 0 2.0 3.0 0.00 0.00 0.00 64 1008.7
20211208013959 25 315 3.0 5.0 0.00 0.00 0.00 64 1008.6
20211208013453 25 315 1.0 3.0 0.00 0.00 0.00 63 1008.7
20211208012947 25 315 2.0 2.0 0.00 0.00 0.00 63 1008.8
20211208012440 25 270 4.0 4.0 0.00 0.00 0.00 63 1009.1
20211208011934 25 270 2.0 2.0 0.00 0.00 0.00 63 1009.3
20211208011428 25 270 4.0 4.0 0.00 0.00 0.00 63 1009.4
20211208010412 25 315 1.0 3.0 0.00 0.00 0.00 63 1009.7
20211208005906 25 315 1.0 3.0 0.00 0.00 0.00 63 1009.8
20211208005359 26 315 2.0 4.0 0.00 0.00 0.00 63 1010.0
20211208004853 26 0 1.0 2.0 0.00 0.00 0.00 63 1010.0
20211208004347 26 0 3.0 3.0 0.00 0.00 0.00 62 1010.2
20211208003841 26 0 2.0 2.0 0.00 0.00 0.00 62 1010.3
20211208003335 26 315 1.0 3.0 0.00 0.00 0.00 62 1010.3
20211208002828 26 315 2.0 4.0 0.00 0.00 0.00 62 1010.4
20211208002322 26 315 3.0 6.0 0.00 0.00 0.00 62 1010.5
20211208001816 26 310 6.0 6.0 0.00 0.00 0.00 62 1010.5
20211208001310 26 270 5.0 6.0 0.00 0.00 0.00 62 1010.5
20211208000257 26 315 2.0 4.0 0.00 0.00 0.00 62 1010.6
20211207235751 26 315 2.0 5.0 0.00 0.00 0.00 62 1010.6
20211207235245 26 315 2.0 3.0 0.00 0.00 0.00 62 1010.9
20211207234233 26 315 2.0 4.0 0.00 0.00 0.00 62 1010.8
20211207233727 26 315 5.0 7.0 0.00 0.00 0.00 62 1011.0
20211207233220 26 315 3.0 8.0 0.00 0.00 0.00 62 1010.6
20211207232208 27 315 2.0 3.0 0.00 0.00 0.00 61 1010.5
20211207231156 27 315 3.0 4.0 0.00 0.00 0.00 61 1010.8
20211207230649 27 315 7.0 7.0 0.00 0.00 0.00 61 1010.8
20211207230143 27 315 3.0 6.0 0.00 0.00 0.00 61 1010.9
20211207225637 27 315 5.0 5.0 0.00 0.00 0.00 61 1011.1
20211207225131 27 315 4.0 5.0 0.00 0.00 0.00 61 1011.2
20211207224625 27 315 3.0 3.0 0.00 0.00 0.00 61 1011.1
20211207223612 27 315 2.0 4.0 0.00 0.00 0.00 61 1011.3
20211207223106 27 315 3.0 3.0 0.00 0.00 0.00 61 1011.5
20211207222600 27 315 3.0 4.0 0.00 0.00 0.00 61 1011.5
20211207222054 27 315 1.0 4.0 0.00 0.00 0.00 61 1011.5
20211207221547 27 315 4.0 6.0 0.00 0.00 0.00 61 1011.6
20211207221041 27 315 3.0 4.0 0.00 0.00 0.00 61 1011.6
20211207220535 27 0 3.0 4.0 0.00 0.00 0.00 61 1011.6
20211207215523 27 337 3.0 4.0 0.00 0.00 0.00 61 1011.8
20211207215017 27 0 6.0 8.0 0.00 0.00 0.00 61 1011.8
20211207214510 27 0 3.0 4.0 0.00 0.00 0.00 61 1011.9
20211207214004 27 0 3.0 4.0 0.00 0.00 0.00 61 1011.9
20211207213458 27 0 4.0 4.0 0.00 0.00 0.00 61 1012.0
20211207212446 28 0 4.0 4.0 0.00 0.00 0.00 61 1012.1
20211207211939 28 0 4.0 4.0 0.00 0.00 0.00 61 1012.0
20211207211433 28 0 2.0 3.0 0.00 0.00 0.00 61 1012.0
20211207210927 28 0 2.0 3.0 0.00 0.00 0.00 61 1012.0
20211207210421 28 0 3.0 3.0 0.00 0.00 0.00 61 1012.3
20211207205408 27 355 0.0 2.0 0.00 0.00 0.00 61 1012.4
20211207204902 27 0 2.0 2.0 0.00 0.00 0.00 61 1012.5
20211207204356 27 22 3.0 3.0 0.00 0.00 0.00 61 1012.5
20211207203850 27 270 1.0 2.0 0.00 0.00 0.00 61 1012.7
20211207203344 27 270 2.0 3.0 0.00 0.00 0.00 61 1012.7
20211207202838 27 270 2.0 2.0 0.00 0.00 0.00 61 1012.6
20211207202331 27 225 0.0 0.0 0.00 0.00 0.00 61 1012.6
20211207201825 27 225 0.0 1.0 0.00 0.00 0.00 61 1012.7
20211207200813 27 0 1.0 2.0 0.00 0.00 0.00 62 1012.9
20211207200307 27 0 2.0 3.0 0.00 0.00 0.00 62 1013.0
20211207195800 27 45 2.0 3.0 0.00 0.00 0.00 62 1013.1
20211207195254 27 18 2.0 5.0 0.00 0.00 0.00 62 1013.0
20211207194748 26 9 6.0 6.0 0.00 0.00 0.00 62 1013.0
20211207194242 26 180 0.0 1.0 0.00 0.00 0.00 62 1013.3
20211207193736 26 180 2.0 2.0 0.00 0.00 0.00 62 1013.2
20211207193229 26 157 1.0 3.0 0.00 0.00 0.00 62 1013.3
20211207192723 26 189 1.0 3.0 0.00 0.00 0.00 62 1013.3
20211207191205 25 180 0.0 0.0 0.00 0.00 0.00 62 1013.6
20211207190148 25 225 0.0 2.0 0.00 0.00 0.00 63 1013.9
20211207185642 25 225 3.0 3.0 0.00 0.00 0.00 63 1014.1
20211207185136 24 225 3.0 3.0 0.00 0.00 0.00 63 1014.1
20211207184630 24 180 0.0 0.0 0.00 0.00 0.00 63 1014.2
20211207184124 24 225 2.0 3.0 0.00 0.00 0.00 63 1014.3
20211207183619 24 225 1.0 2.0 0.00 0.00 0.00 63 1014.3
20211207183111 24 270 3.0 4.0 0.00 0.00 0.00 63 1014.4
20211207182605 24 0 0.0 2.0 0.00 0.00 0.00 63 1014.3
20211207182059 23 315 3.0 3.0 0.00 0.00 0.00 63 1014.4
20211207181553 23 22 3.0 5.0 0.00 0.00 0.00 63 1014.4
20211207181046 23 315 3.0 4.0 0.00 0.00 0.00 63 1014.4
20211207180540 23 315 1.0 4.0 0.00 0.00 0.00 63 1014.4
20211207180034 23 315 2.0 4.0 0.00 0.00 0.00 64 1014.6
20211207175528 23 315 4.0 4.0 0.00 0.00 0.00 64 1014.4
20211207175022 22 270 3.0 4.0 0.00 0.00 0.00 64 1014.3
20211207174516 22 270 2.0 5.0 0.00 0.00 0.00 64 1014.4
20211207174009 22 270 3.0 3.0 0.00 0.00 0.00 64 1014.4
20211207173503 22 45 0.0 0.0 0.00 0.00 0.00 64 1014.6
20211207172957 22 45 0.0 3.0 0.00 0.00 0.00 64 1014.5
20211207172451 22 0 4.0 4.0 0.00 0.00 0.00 64 1014.5
20211207171945 21 315 3.0 4.0 0.00 0.00 0.00 64 1014.5
20211207171438 21 45 1.0 2.0 0.00 0.00 0.00 64 1014.4
20211207170932 21 0 1.0 3.0 0.00 0.00 0.00 64 1014.4
20211207170426 21 0 3.0 4.0 0.00 0.00 0.00 64 1014.3
20211207165414 21 346 3.0 4.0 0.00 0.00 0.00 64 1014.2
20211207164907 21 315 3.0 3.0 0.00 0.00 0.00 64 1014.1
20211207164401 21 225 1.0 2.0 0.00 0.00 0.00 64 1014.1
20211207163855 21 225 2.0 3.0 0.00 0.00 0.00 64 1014.2
20211207163349 21 270 2.0 2.0 0.00 0.00 0.00 64 1014.1
20211207162843 21 225 2.0 2.0 0.00 0.00 0.00 64 1014.1
20211207162336 20 225 1.0 2.0 0.00 0.00 0.00 64 1014.1
20211207161830 20 225 2.0 2.0 0.00 0.00 0.00 64 1014.1
20211207161324 20 180 1.0 1.0 0.00 0.00 0.00 64 1014.1
20211207160818 20 0 0.0 0.0 0.00 0.00 0.00 64 1014.3
20211207160312 20 0 0.0 0.0 0.00 0.00 0.00 64 1014.2
20211207155805 20 0 0.0 0.0 0.00 0.00 0.00 64 1014.3
20211207155259 20 0 0.0 0.0 0.00 0.00 0.00 64 1014.4
20211207154753 20 0 0.0 0.0 0.00 0.00 0.00 64 1014.3
20211207154247 20 315 0.0 0.0 0.00 0.00 0.00 64 1014.2
20211207153235 20 315 0.0 0.0 0.00 0.00 0.00 64 1014.3
20211207152728 20 315 0.0 1.0 0.00 0.00 0.00 64 1014.3
20211207152222 20 315 1.0 1.0 0.00 0.00 0.00 64 1014.3
20211207151716 20 315 1.0 2.0 0.00 0.00 0.00 64 1014.3
20211207151210 20 315 1.0 1.0 0.00 0.00 0.00 64 1014.3
20211207150704 20 315 1.0 2.0 0.00 0.00 0.00 64 1014.5
20211207150157 20 315 1.0 2.0 0.00 0.00 0.00 64 1014.5
20211207145651 20 0 2.0 2.0 0.00 0.00 0.00 64 1014.4
20211207144639 20 0 3.0 3.0 0.00 0.00 0.00 64 1014.7
20211207144133 20 0 2.0 2.0 0.00 0.00 0.00 64 1014.5
20211207143626 20 76 1.0 1.0 0.00 0.00 0.00 64 1014.3
20211207142614 20 315 3.0 3.0 0.00 0.00 0.00 64 1014.6
20211207142108 20 315 4.0 4.0 0.00 0.00 0.00 64 1014.6
20211207141602 20 315 4.0 6.0 0.00 0.00 0.00 64 1014.6
20211207141056 20 315 4.0 4.0 0.00 0.00 0.00 64 1014.6
20211207140549 20 315 8.0 8.0 0.00 0.00 0.00 64 1014.7
20211207140043 20 315 4.0 8.0 0.00 0.00 0.00 64 1014.6
20211207135537 20 333 3.0 5.0 0.00 0.00 0.00 64 1014.7
20211207135031 20 315 5.0 5.0 0.00 0.00 0.00 64 1014.7
20211207134018 20 315 3.0 4.0 0.00 0.00 0.00 64 1014.7
20211207133512 20 315 3.0 4.0 0.00 0.00 0.00 64 1014.7
20211207133006 20 315 3.0 4.0 0.00 0.00 0.00 64 1014.7
20211207132500 20 337 1.0 4.0 0.00 0.00 0.00 64 1014.6
20211207131954 20 315 2.0 3.0 0.00 0.00 0.00 64 1014.6
20211207131447 20 229 1.0 2.0 0.00 0.00 0.00 64 1014.6
20211207130435 20 270 1.0 2.0 0.00 0.00 0.00 64 1014.6
20211207125929 20 270 1.0 1.0 0.00 0.00 0.00 64 1014.7
20211207125423 20 315 1.0 1.0 0.00 0.00 0.00 64 1014.8
20211207124916 19 0 2.0 3.0 0.00 0.00 0.00 64 1014.9
20211207124410 19 0 2.0 2.0 0.00 0.00 0.00 64 1014.9
20211207123904 19 0 1.0 2.0 0.00 0.00 0.00 64 1014.8
20211207122852 19 0 2.0 2.0 0.00 0.00 0.00 64 1014.9
20211207122345 19 0 1.0 1.0 0.00 0.00 0.00 64 1014.8
20211207121839 19 0 1.0 2.0 0.00 0.00 0.00 64 1014.8
20211207121333 19 0 2.0 2.0 0.00 0.00 0.00 64 1014.9
20211207120827 19 36 2.0 2.0 0.00 0.00 0.00 64 1014.8
20211207120321 19 18 0.0 1.0 0.00 0.00 0.00 64 1014.8
20211207115815 19 90 0.0 2.0 0.00 0.00 0.00 64 1014.8
20211207115308 19 0 5.0 6.0 0.00 0.00 0.00 64 1014.7
20211207114802 19 0 3.0 3.0 0.00 0.00 0.00 64 1014.7
20211207114256 19 0 1.0 2.0 0.00 0.00 0.00 64 1014.9
20211207113750 19 297 3.0 4.0 0.00 0.00 0.00 64 1014.8
20211207113244 19 315 4.0 5.0 0.00 0.00 0.00 64 1014.8
20211207112737 19 315 5.0 7.0 0.00 0.00 0.00 64 1014.9
20211207112231 19 315 3.0 4.0 0.00 0.00 0.00 64 1014.8
20211207111725 19 337 4.0 4.0 0.00 0.00 0.00 64 1014.8
20211207111219 19 351 4.0 6.0 0.00 0.00 0.00 64 1014.8
20211207110713 19 355 4.0 4.0 0.00 0.00 0.00 64 1014.8
20211207110207 19 355 4.0 5.0 0.00 0.00 0.00 64 1014.8
20211207105700 19 342 3.0 4.0 0.00 0.00 0.00 64 1014.9
20211207105154 19 315 3.0 4.0 0.00 0.00 0.00 64 1014.9
20211207104648 19 315 3.0 4.0 0.00 0.00 0.00 64 1014.9
20211207104142 19 0 4.0 5.0 0.00 0.00 0.00 63 1014.9
20211207103636 19 0 5.0 8.0 0.00 0.00 0.00 63 1015.0
20211207103129 19 0 4.0 5.0 0.00 0.00 0.00 63 1015.0
20211207102623 19 315 4.0 6.0 0.00 0.00 0.00 63 1015.1
20211207102117 19 315 2.0 3.0 0.00 0.00 0.00 63 1014.9
20211207101611 19 292 2.0 2.0 0.00 0.00 0.00 63 1014.7
20211207101105 19 315 0.0 2.0 0.00 0.00 0.00 63 1014.8
20211207100558 19 0 0.0 1.0 0.00 0.00 0.00 63 1015.0
20211207100052 19 0 0.0 1.0 0.00 0.00 0.00 63 1015.0
20211207095546 19 315 2.0 3.0 0.00 0.00 0.00 63 1015.1
20211207095040 19 315 2.0 4.0 0.00 0.00 0.00 63 1015.2
20211207094534 19 337 5.0 7.0 0.00 0.00 0.00 63 1015.4
20211207094027 19 324 3.0 4.0 0.00 0.00 0.00 63 1015.5
20211207093521 19 49 0.0 3.0 0.00 0.00 0.00 63 1015.3
20211207093015 19 49 3.0 4.0 0.00 0.00 0.00 63 1015.4
20211207092509 18 90 0.0 1.0 0.00 0.00 0.00 63 1015.3
20211207092003 18 0 3.0 4.0 0.00 0.00 0.00 63 1015.2
20211207091457 18 315 5.0 8.0 0.00 0.00 0.00 63 1015.2
20211207090950 18 315 6.0 7.0 0.00 0.00 0.00 63 1015.1
20211207090444 18 315 6.0 8.0 0.00 0.00 0.00 63 1015.0
20211207085938 18 315 7.0 7.0 0.00 0.00 0.00 63 1014.9
20211207085432 18 315 6.0 6.0 0.00 0.00 0.00 63 1014.9
20211207084926 18 315 6.0 7.0 0.00 0.00 0.00 63 1014.9
20211207084419 18 315 5.0 5.0 0.00 0.00 0.00 63 1014.8
20211207083913 18 0 4.0 4.0 0.00 0.00 0.00 63 1014.6
20211207083407 18 315 2.0 4.0 0.00 0.00 0.00 63 1014.6
20211207082901 18 315 2.0 2.0 0.00 0.00 0.00 63 1014.3
20211207082355 18 90 1.0 3.0 0.00 0.00 0.00 63 1014.2
20211207081848 18 49 2.0 2.0 0.00 0.00 0.00 63 1014.4
20211207081342 18 0 3.0 4.0 0.00 0.00 0.00 63 1014.8
20211207080836 18 315 4.0 5.0 0.00 0.00 0.00 63 1014.9
20211207080330 18 22 2.0 4.0 0.00 0.00 0.00 63 1014.9
20211207075824 18 355 3.0 4.0 0.00 0.00 0.00 63 1015.0
20211207075317 18 315 3.0 4.0 0.00 0.00 0.00 63 1015.2
20211207074811 18 315 4.0 5.0 0.00 0.00 0.00 63 1015.1
20211207074305 18 315 4.0 4.0 0.00 0.00 0.00 63 1015.2
20211207073759 18 315 4.0 4.0 0.00 0.00 0.00 63 1015.3
20211207072747 18 319 4.0 5.0 0.00 0.00 0.00 63 1015.6
20211207072240 18 324 3.0 4.0 0.00 0.00 0.00 63 1015.6
20211207071734 18 0 2.0 5.0 0.00 0.00 0.00 63 1015.4
20211207071228 18 315 5.0 6.0 0.00 0.00 0.00 63 1015.8
20211207070722 18 315 5.0 6.0 0.00 0.00 0.00 63 1015.7
20211207070216 18 315 5.0 6.0 0.00 0.00 0.00 63 1015.7
20211207065709 18 315 5.0 8.0 0.00 0.00 0.00 63 1015.8
20211207064657 18 315 9.0 10.0 0.00 0.00 0.00 63 1016.0
20211207064151 17 315 9.0 10.0 0.00 0.00 0.00 63 1015.9
20211207063645 17 315 7.0 9.0 0.00 0.00 0.00 63 1015.9
20211207063138 17 315 8.0 8.0 0.00 0.00 0.00 63 1015.8
20211207062632 17 315 7.0 8.0 0.00 0.00 0.00 63 1015.8
20211207062126 17 315 6.0 8.0 0.00 0.00 0.00 63 1016.0
20211207061620 17 315 6.0 7.0 0.00 0.00 0.00 63 1016.0
20211207061114 17 315 5.0 6.0 0.00 0.00 0.00 63 1016.1
20211207060607 17 315 5.0 6.0 0.00 0.00 0.00 63 1016.2
20211207060101 17 319 6.0 8.0 0.00 0.00 0.00 63 1016.1
20211207055555 17 315 6.0 7.0 0.00 0.00 0.00 63 1016.1
20211207055049 17 315 6.0 7.0 0.00 0.00 0.00 63 1016.1
20211207054543 17 315 5.0 6.0 0.00 0.00 0.00 63 1015.9
20211207054037 17 315 4.0 4.0 0.00 0.00 0.00 62 1016.0
20211207053530 17 315 5.0 6.0 0.00 0.00 0.00 62 1015.9
20211207053024 17 315 4.0 5.0 0.00 0.00 0.00 62 1015.8
20211207052518 17 315 4.0 5.0 0.00 0.00 0.00 62 1015.8
20211207052012 17 315 4.0 5.0 0.00 0.00 0.00 62 1015.7
20211207051506 17 319 2.0 3.0 0.00 0.00 0.00 62 1015.8
20211207050959 17 9 3.0 3.0 0.00 0.00 0.00 62 1015.8
20211207050453 17 0 2.0 3.0 0.00 0.00 0.00 62 1015.6
20211207045947 17 315 1.0 3.0 0.00 0.00 0.00 62 1015.7
20211207045441 17 315 3.0 6.0 0.00 0.00 0.00 62 1015.7
20211207044935 17 315 4.0 5.0 0.00 0.00 0.00 62 1015.7
20211207044428 17 0 2.0 2.0 0.00 0.00 0.00 62 1015.7
20211207043922 17 90 0.0 1.0 0.00 0.00 0.00 62 1015.6
20211207043416 17 337 1.0 1.0 0.00 0.00 0.00 62 1015.7
20211207042404 17 337 0.0 1.0 0.00 0.00 0.00 62 1015.9
20211207041351 17 315 0.0 1.0 0.00 0.00 0.00 62 1016.0
20211207040845 17 315 0.0 3.0 0.00 0.00 0.00 62 1016.0
20211207040339 17 315 3.0 4.0 0.00 0.00 0.00 62 1016.1
20211207035327 17 315 4.0 4.0 0.00 0.00 0.00 62 1016.0
20211207034820 17 315 3.0 5.0 0.00 0.00 0.00 62 1016.0
20211207034314 17 315 4.0 8.0 0.00 0.00 0.00 62 1015.7
20211207033302 17 351 5.0 6.0 0.00 0.00 0.00 62 1015.5
20211207032756 17 337 6.0 6.0 0.00 0.00 0.00 62 1015.6